EGSS/STN METAR and TAF weather

Enter ICAO airport designator
Station Type Date Time Source
EGSS METAR 2021/09/27 07:20 UTC NOAA

EGSS 270720Z AUTO 16018KT 5000 -RA BKN009/// OVC041/// //////TCU 16/15 Q1003


Station Type Date Time Source
EGSS Decoded METAR 2021/09/27 07:20 UTC NOAA

Stansted Airport, United Kingdom (EGSS) 51-53N 000-14E 0M
Sep 27, 2021 - 03:20 AM EDT / 2021.09.27 0720 UTC
Wind: from the SSE (160 degrees) at 21 MPH (18 KT):0
Visibility: 3 mile(s):0
Sky conditions: overcast
Weather: light rain; Towering cumulus clouds observed
Temperature: 60 F (16 C)
Dew Point: 59 F (15 C)
Relative Humidity: 93%
Pressure (altimeter): 29.62 in. Hg (1003 hPa)
ob: EGSS 270720Z AUTO 16018KT 5000 -RA BKN009/// OVC041/// //////TCU 16/15 Q1003
cycle: 7

Station Type Date Time Source
EGSS TAF 2021/09/27 06:09 UTC NOAA

TAF EGSS 270454Z 2706/2812 17015G25KT 9999 FEW012 SCT018
TEMPO 2706/2711 4000 RA BKN012 PROB40
TEMPO 2706/2709 18022G35KT 1400 +RA BKN008
BECMG 2708/2711 26010KT
TEMPO 2711/2717 26015G25KT PROB30
TEMPO 2711/2713 9000 -SHRA BKN014
BECMG 2718/2721 20006KT PROB40
TEMPO 2810/2812 6000 SHRA

Example: see airport list